METAR Formatted Surface Weather Observation
Issued by NWS Charleston, WV

Home | Current Version | Previous Version | Text Only | Print | Product List | Glossary On
Versions: 1 2 3 4 5 6 7 8 9 10 11 12 13
000
SAUS41 KRLX 170600 COR
MTRCRW
METAR KCRW 170554Z 00000KT 1/4SM FG VV001 13/13 A3008 RMK AO2 SLP180
T01330133 10167 20128 58002 RVRNO $



USA.gov is the U.S. government's official web portal to all federal, state and local government web resources and services.